createdAt,value
2022-11-26T00:02:21.865Z,9.98
2022-11-26T00:04:50.680Z,9.91
2022-11-26T00:07:22.680Z,9.91
2022-11-26T00:09:51.557Z,9.94
2022-11-26T00:12:22.732Z,9.97
2022-11-26T00:14:51.207Z,10.03
2022-11-26T00:17:22.032Z,9.99
2022-11-26T00:19:50.529Z,10.03
2022-11-26T00:22:25.549Z,10.06
2022-11-26T00:24:54.815Z,10.00
2022-11-26T00:27:26.955Z,9.93
2022-11-26T00:29:56.293Z,9.84
2022-11-26T00:32:27.714Z,9.68
2022-11-26T00:34:56.030Z,9.45
2022-11-26T00:37:28.392Z,9.68
2022-11-26T00:39:58.038Z,9.75
2022-11-26T00:42:27.009Z,9.82
2022-11-26T00:44:55.397Z,9.86
2022-11-26T00:47:24.177Z,9.90
2022-11-26T00:49:53.874Z,9.95
2022-11-26T00:52:34.706Z,9.98
2022-11-26T00:55:08.328Z,9.98
2022-11-26T00:57:37.479Z,9.99
2022-11-26T01:00:15.880Z,10.12
2022-11-26T01:02:44.811Z,10.06
2022-11-26T01:05:14.899Z,10.10
2022-11-26T01:07:45.745Z,10.09
2022-11-26T01:10:20.867Z,10.15
2022-11-26T01:12:50.663Z,10.08
2022-11-26T01:15:19.893Z,10.06
2022-11-26T01:17:49.199Z,10.06
2022-11-26T01:20:25.524Z,10.14
2022-11-26T01:22:56.804Z,10.06
2022-11-26T01:25:26.993Z,10.00
2022-11-26T01:27:56.170Z,9.93
2022-11-26T01:30:27.172Z,9.82
2022-11-26T01:32:56.060Z,9.46
2022-11-26T01:35:25.853Z,9.28
2022-11-26T01:37:55.461Z,8.87
2022-11-26T01:40:53.253Z,8.66
2022-11-26T01:43:26.815Z,8.71
2022-11-26T01:45:56.589Z,9.02
2022-11-26T01:48:29.181Z,9.17
2022-11-26T01:51:06.996Z,9.29
2022-11-26T01:53:48.766Z,9.26
2022-11-26T01:56:37.460Z,9.33
2022-11-26T01:59:10.297Z,9.33
2022-11-26T02:01:39.181Z,9.40
2022-11-26T02:04:13.976Z,9.55
2022-11-26T02:06:46.187Z,9.62
2022-11-26T02:09:16.120Z,9.64
2022-11-26T02:11:45.187Z,9.69
2022-11-26T02:14:17.709Z,9.75
2022-11-26T02:17:09.575Z,9.91
2022-11-26T02:20:17.230Z,9.86
2022-11-26T02:23:20.570Z,9.88
2022-11-26T02:26:30.913Z,9.85
2022-11-26T02:29:07.861Z,9.80
2022-11-26T02:31:46.772Z,9.82
2022-11-26T02:34:22.572Z,9.78
2022-11-26T02:36:54.907Z,9.76
2022-11-26T02:39:26.315Z,9.77
2022-11-26T02:41:57.028Z,9.77
2022-11-26T02:44:29.755Z,9.77
2022-11-26T02:47:04.063Z,9.81
2022-11-26T02:49:34.545Z,9.75
2022-11-26T02:52:06.094Z,9.80
2022-11-26T02:54:37.444Z,9.78
2022-11-26T02:57:10.326Z,9.72
2022-11-26T02:59:40.262Z,9.69
2022-11-26T03:02:16.059Z,9.75
2022-11-26T03:04:48.428Z,9.74
2022-11-26T03:07:18.404Z,9.67
2022-11-26T03:09:52.697Z,9.74
2022-11-26T03:12:21.982Z,9.66
2022-11-26T03:14:50.586Z,9.65
2022-11-26T03:17:21.191Z,9.68
2022-11-26T03:19:49.754Z,9.64
2022-11-26T03:22:18.963Z,9.64
2022-11-26T03:24:47.336Z,9.62
2022-11-26T03:27:16.066Z,9.61
2022-11-26T03:29:44.417Z,9.58
2022-11-26T03:32:13.182Z,9.54
2022-11-26T03:34:43.418Z,9.58
2022-11-26T03:37:12.122Z,9.55
2022-11-26T03:39:40.605Z,9.54
2022-11-26T03:42:09.395Z,9.55
2022-11-26T03:44:38.245Z,9.55
2022-11-26T03:47:07.240Z,9.54
2022-11-26T03:49:35.853Z,9.53
2022-11-26T03:52:06.203Z,9.52
2022-11-26T03:54:34.603Z,9.41
2022-11-26T03:57:03.314Z,9.09
2022-11-26T03:59:31.850Z,9.06
2022-11-26T04:02:00.500Z,9.17
2022-11-26T04:04:28.894Z,9.14
2022-11-26T04:06:57.684Z,9.17
2022-11-26T04:09:27.522Z,8.91
2022-11-26T04:11:56.266Z,8.11
2022-11-26T04:14:24.684Z,7.31
2022-11-26T04:16:53.576Z,6.98
2022-11-26T04:19:22.015Z,6.69
2022-11-26T04:21:50.651Z,6.41
2022-11-26T04:24:18.939Z,6.27
2022-11-26T04:26:49.059Z,6.23
2022-11-26T04:29:17.418Z,6.56
2022-11-26T04:31:46.263Z,6.89
2022-11-26T04:34:14.762Z,7.00
2022-11-26T04:36:43.481Z,7.32
2022-11-26T04:39:12.636Z,7.47
2022-11-26T04:41:42.912Z,7.67
2022-11-26T04:44:12.645Z,7.87
2022-11-26T04:46:41.388Z,7.98
2022-11-26T04:49:09.857Z,8.10
2022-11-26T04:51:38.467Z,8.16
2022-11-26T04:54:12.733Z,8.17
2022-11-26T04:56:41.978Z,8.24
2022-11-26T04:59:10.383Z,8.29
2022-11-26T05:01:40.918Z,8.36
2022-11-26T05:04:09.406Z,8.39
2022-11-26T05:06:38.160Z,8.42
2022-11-26T05:09:07.032Z,8.49
2022-11-26T05:11:35.751Z,8.53
2022-11-26T05:14:04.162Z,8.58
2022-11-26T05:16:33.075Z,8.63
2022-11-26T05:19:02.964Z,8.67
2022-11-26T05:21:31.659Z,8.70
2022-11-26T05:24:00.000Z,8.73
2022-11-26T05:26:28.789Z,8.74
2022-11-26T05:28:57.262Z,8.75
2022-11-26T05:31:26.294Z,8.77
2022-11-26T05:33:54.697Z,8.80
2022-11-26T05:36:24.997Z,8.80
2022-11-26T05:38:53.435Z,8.80
2022-11-26T05:41:22.166Z,8.78
2022-11-26T05:43:50.539Z,8.78
2022-11-26T05:46:20.272Z,8.78
2022-11-26T05:48:48.753Z,8.74
2022-11-26T05:51:17.577Z,8.74
2022-11-26T05:53:47.314Z,8.71
2022-11-26T05:56:16.037Z,8.70
2022-11-26T05:58:44.714Z,8.70
2022-11-26T06:01:13.801Z,8.69
2022-11-26T06:03:42.301Z,8.72
2022-11-26T06:06:11.229Z,8.66
2022-11-26T06:08:39.631Z,8.71
2022-11-26T06:11:12.715Z,8.78
2022-11-26T06:13:41.564Z,8.76
2022-11-26T06:16:10.622Z,8.77
2022-11-26T06:18:39.535Z,8.81
2022-11-26T06:21:09.090Z,8.83
2022-11-26T06:23:37.552Z,8.88
2022-11-26T06:26:10.674Z,8.92
2022-11-26T06:28:39.876Z,8.96
2022-11-26T06:31:10.297Z,8.95
2022-11-26T06:33:39.102Z,8.95
2022-11-26T06:36:08.054Z,9.01
2022-11-26T06:38:36.456Z,9.03
2022-11-26T06:41:07.237Z,9.07
2022-11-26T06:43:37.323Z,9.15
2022-11-26T06:46:08.619Z,9.20
2022-11-26T06:48:38.449Z,9.25
2022-11-26T06:51:09.362Z,9.30
2022-11-26T06:53:38.023Z,9.36
2022-11-26T06:56:09.307Z,9.36
2022-11-26T06:58:41.158Z,9.36
2022-11-26T07:01:10.486Z,9.34
2022-11-26T07:03:39.536Z,9.30
2022-11-26T07:06:17.355Z,9.11
2022-11-26T07:08:45.904Z,8.66
2022-11-26T07:11:15.397Z,8.75
2022-11-26T07:13:45.405Z,8.64
2022-11-26T07:16:14.615Z,8.61
2022-11-26T07:18:43.415Z,8.66
2022-11-26T07:21:14.247Z,8.50
2022-11-26T07:23:42.865Z,8.26
2022-11-26T07:26:13.567Z,7.86
2022-11-26T07:28:42.955Z,8.04
2022-11-26T07:31:17.000Z,8.27
2022-11-26T07:33:46.290Z,8.52
2022-11-26T07:36:17.179Z,8.78
2022-11-26T07:38:46.403Z,8.95
2022-11-26T07:41:18.239Z,9.17
2022-11-26T07:43:47.621Z,9.32
2022-11-26T07:46:21.527Z,9.53
2022-11-26T07:48:50.507Z,9.64
2022-11-26T07:51:21.199Z,9.78
2022-11-26T07:53:50.094Z,9.85
2022-11-26T07:56:19.667Z,9.95
2022-11-26T07:58:48.520Z,10.02
2022-11-26T08:01:20.850Z,10.12
2022-11-26T08:03:50.952Z,10.13
2022-11-26T08:06:21.778Z,10.20
2022-11-26T08:08:51.492Z,10.24
2022-11-26T08:11:22.725Z,10.24
2022-11-26T08:13:54.682Z,10.29
2022-11-26T08:16:26.878Z,10.30
2022-11-26T08:18:58.122Z,10.27
2022-11-26T08:21:27.493Z,10.29
2022-11-26T08:23:56.774Z,10.34
2022-11-26T08:26:35.035Z,10.37
2022-11-26T08:29:05.239Z,10.44
2022-11-26T08:31:38.875Z,10.47
2022-11-26T08:34:12.459Z,10.57
2022-11-26T08:36:41.209Z,10.62
2022-11-26T08:39:10.345Z,10.70
2022-11-26T08:41:39.164Z,10.79
2022-11-26T08:44:08.463Z,10.89
2022-11-26T08:46:40.059Z,10.99
2022-11-26T08:49:12.126Z,11.07
2022-11-26T08:51:41.015Z,11.14
2022-11-26T08:54:09.652Z,11.22
2022-11-26T08:56:38.602Z,11.25
2022-11-26T08:59:07.356Z,11.28
2022-11-26T09:01:38.068Z,11.36
2022-11-26T09:04:07.027Z,11.42
2022-11-26T09:06:37.768Z,11.50
2022-11-26T09:09:18.078Z,11.59
2022-11-26T09:11:50.361Z,11.74
2022-11-26T09:14:21.043Z,11.77
2022-11-26T09:16:51.310Z,11.89
2022-11-26T09:19:20.014Z,11.98
2022-11-26T09:21:49.646Z,12.08
2022-11-26T09:24:18.818Z,12.14
2022-11-26T09:26:48.468Z,12.25
2022-11-26T09:29:20.061Z,12.35
2022-11-26T09:32:21.376Z,12.44
2022-11-26T09:34:40.290Z,12.54
2022-11-26T09:37:09.430Z,12.64
2022-11-26T09:39:38.103Z,12.72
2022-11-26T09:42:08.882Z,12.76
2022-11-26T09:44:52.650Z,12.93
2022-11-26T09:47:24.952Z,12.95
2022-11-26T09:50:04.355Z,13.09
2022-11-26T09:52:38.198Z,13.12
2022-11-26T09:55:17.099Z,13.20
2022-11-26T09:57:52.720Z,13.25
2022-11-26T10:00:26.903Z,13.29
2022-11-26T10:02:58.431Z,13.40
2022-11-26T10:05:42.271Z,13.55
2022-11-26T10:08:25.919Z,13.61
2022-11-26T10:11:03.760Z,13.60
2022-11-26T10:13:46.137Z,13.76
2022-11-26T10:16:26.371Z,13.79
2022-11-26T10:19:03.969Z,13.83
2022-11-26T10:21:58.072Z,13.91
2022-11-26T10:24:31.220Z,14.00
2022-11-26T10:27:05.536Z,14.07
2022-11-26T10:29:39.187Z,14.18
2022-11-26T10:32:15.985Z,14.28
2022-11-26T10:34:51.502Z,14.16
2022-11-26T10:37:21.621Z,14.17
2022-11-26T10:39:55.262Z,13.39
2022-11-26T10:42:27.250Z,13.35
2022-11-26T10:44:55.762Z,13.63
2022-11-26T10:47:27.933Z,13.49
2022-11-26T10:50:45.569Z,13.89
2022-11-26T10:53:07.380Z,13.82
2022-11-26T10:55:40.605Z,13.83
2022-11-26T10:58:17.639Z,13.72
2022-11-26T11:00:54.958Z,13.77
2022-11-26T11:03:44.943Z,13.91
2022-11-26T11:06:29.067Z,13.30
2022-11-26T11:08:57.796Z,13.19
2022-11-26T11:11:27.760Z,13.41
2022-11-26T11:13:57.059Z,13.63
2022-11-26T11:16:29.651Z,13.73
2022-11-26T11:19:00.846Z,13.89
2022-11-26T11:21:36.398Z,14.09
2022-11-26T11:24:11.027Z,13.63
2022-11-26T11:26:43.403Z,13.82
2022-11-26T11:29:33.655Z,14.12
2022-11-26T11:32:04.505Z,14.05
2022-11-26T11:34:35.476Z,14.18
2022-11-26T11:37:14.767Z,14.30
2022-11-26T11:39:44.876Z,14.36
2022-11-26T11:42:23.782Z,14.58
2022-11-26T11:44:53.266Z,14.45
2022-11-26T11:47:31.329Z,14.52
2022-11-26T11:50:14.846Z,14.66
2022-11-26T11:52:56.875Z,14.63
2022-11-26T11:55:38.023Z,14.64
2022-11-26T11:58:20.946Z,14.53
2022-11-26T12:00:57.166Z,14.01
2022-11-26T12:04:08.386Z,14.20
2022-11-26T12:06:49.008Z,14.03
2022-11-26T12:09:26.627Z,14.14
2022-11-26T12:12:00.270Z,14.16
2022-11-26T12:14:35.986Z,14.11
2022-11-26T12:17:09.006Z,13.95
2022-11-26T12:19:44.349Z,14.04
2022-11-26T12:22:21.748Z,13.81
2022-11-26T12:24:57.515Z,13.71
2022-11-26T12:27:34.010Z,13.82
2022-11-26T12:30:08.748Z,13.82
2022-11-26T12:32:44.452Z,13.80
2022-11-26T12:35:17.859Z,13.35
2022-11-26T12:37:52.595Z,13.54
2022-11-26T12:40:32.245Z,13.53
2022-11-26T12:43:07.035Z,13.50
2022-11-26T12:45:45.835Z,13.58
2022-11-26T12:48:29.451Z,13.58
2022-11-26T12:51:02.817Z,13.55
2022-11-26T12:53:38.340Z,13.20
2022-11-26T12:56:17.950Z,13.39
2022-11-26T12:58:56.402Z,13.46
2022-11-26T13:01:25.264Z,13.49
2022-11-26T13:04:14.415Z,13.52
2022-11-26T13:07:01.028Z,13.57
2022-11-26T13:09:47.791Z,13.60
2022-11-26T13:12:28.396Z,13.53
2022-11-26T13:15:07.608Z,13.40
2022-11-26T13:17:42.952Z,13.39
2022-11-26T13:20:37.529Z,13.48
2022-11-26T13:23:20.457Z,13.54
2022-11-26T13:26:16.303Z,13.60
2022-11-26T13:29:18.024Z,13.62
2022-11-26T13:32:03.783Z,13.54
2022-11-26T13:34:53.778Z,13.46
2022-11-26T13:37:41.780Z,13.57
2022-11-26T13:40:38.746Z,13.50
2022-11-26T13:43:27.962Z,13.51
2022-11-26T13:46:17.555Z,13.49
2022-11-26T13:48:58.750Z,13.43
2022-11-26T13:51:34.911Z,13.44
2022-11-26T13:54:10.372Z,13.41
2022-11-26T13:56:40.815Z,13.24
2022-11-26T13:59:17.503Z,13.21
2022-11-26T14:01:47.380Z,12.80
2022-11-26T14:04:59.241Z,13.07
2022-11-26T14:07:29.438Z,12.91
2022-11-26T14:10:00.281Z,11.55
2022-11-26T14:13:02.263Z,11.15
2022-11-26T14:15:57.178Z,10.74
2022-11-26T14:19:00.791Z,10.95
2022-11-26T14:21:31.707Z,10.82
2022-11-26T14:24:01.903Z,11.00
2022-11-26T14:26:34.496Z,11.14
2022-11-26T14:29:13.312Z,11.50
2022-11-26T14:31:49.907Z,11.58
2022-11-26T14:34:24.359Z,11.50
2022-11-26T14:36:57.502Z,10.20
2022-11-26T14:39:27.592Z,9.69
2022-11-26T14:42:05.173Z,9.20
2022-11-26T14:44:35.046Z,9.46
2022-11-26T14:47:12.236Z,9.60
2022-11-26T14:49:43.860Z,9.96
2022-11-26T14:52:20.641Z,9.85
2022-11-26T14:54:51.735Z,9.28
2022-11-26T14:57:24.097Z,9.19
2022-11-26T15:00:00.016Z,8.98
2022-11-26T15:02:30.512Z,8.82
2022-11-26T15:05:01.208Z,9.26
2022-11-26T15:07:32.640Z,8.74
2022-11-26T15:10:03.113Z,8.71
2022-11-26T15:12:32.773Z,8.45
2022-11-26T15:15:02.893Z,8.42
2022-11-26T15:17:32.833Z,8.30
2022-11-26T15:20:05.417Z,8.31
2022-11-26T15:22:39.366Z,8.13
2022-11-26T15:25:17.767Z,8.05
2022-11-26T15:27:55.205Z,7.88
2022-11-26T15:30:26.078Z,7.91
2022-11-26T15:32:58.811Z,7.76
2022-11-26T15:35:28.329Z,7.66
2022-11-26T15:37:59.030Z,7.97
2022-11-26T15:40:31.616Z,8.47
2022-11-26T15:43:04.723Z,8.27
2022-11-26T15:45:40.327Z,8.27
2022-11-26T15:48:27.662Z,8.08
2022-11-26T15:51:02.104Z,7.92
2022-11-26T15:53:35.908Z,8.05
2022-11-26T15:56:06.069Z,7.92
2022-11-26T15:58:39.487Z,7.88
2022-11-26T16:01:17.575Z,7.74
2022-11-26T16:03:48.689Z,7.53
2022-11-26T16:06:29.977Z,7.66
2022-11-26T16:09:27.876Z,7.94
2022-11-26T16:12:01.357Z,7.91
2022-11-26T16:14:33.271Z,7.73
2022-11-26T16:17:08.347Z,7.46
2022-11-26T16:19:38.431Z,7.70
2022-11-26T16:22:07.880Z,7.40
2022-11-26T16:24:40.988Z,7.52
2022-11-26T16:27:28.667Z,7.43
2022-11-26T16:29:57.566Z,7.59
2022-11-26T16:32:25.996Z,7.61
2022-11-26T16:34:54.697Z,7.64
2022-11-26T16:37:25.297Z,7.67
2022-11-26T16:40:02.363Z,7.85
2022-11-26T16:42:32.024Z,7.44
2022-11-26T16:45:04.148Z,7.33
2022-11-26T16:47:35.716Z,7.20
2022-11-26T16:50:05.208Z,7.22
2022-11-26T16:52:38.532Z,7.13
2022-11-26T16:55:12.608Z,7.28
2022-11-26T16:57:42.227Z,7.37
2022-11-26T17:00:17.657Z,7.69
2022-11-26T17:02:46.407Z,7.70
2022-11-26T17:05:15.394Z,7.63
2022-11-26T17:07:47.718Z,7.68
2022-11-26T17:10:19.455Z,7.83
2022-11-26T17:12:49.752Z,7.75
2022-11-26T17:15:19.144Z,7.73
2022-11-26T17:17:47.740Z,8.11
2022-11-26T17:20:18.583Z,8.45
2022-11-26T17:22:47.063Z,8.61
2022-11-26T17:25:17.542Z,9.02
2022-11-26T17:27:46.465Z,9.33
2022-11-26T17:30:17.760Z,9.51
2022-11-26T17:32:46.297Z,9.73
2022-11-26T17:35:15.079Z,9.90
2022-11-26T17:37:44.341Z,10.07
2022-11-26T17:40:20.236Z,10.29
2022-11-26T17:42:48.890Z,10.32
2022-11-26T17:45:18.512Z,10.45
2022-11-26T17:47:47.287Z,10.53
2022-11-26T17:50:20.461Z,10.64
2022-11-26T17:52:49.951Z,10.70
2022-11-26T17:55:21.102Z,10.80
2022-11-26T17:57:49.947Z,10.74
2022-11-26T18:00:21.087Z,10.69
2022-11-26T18:02:49.631Z,10.69
2022-11-26T18:05:18.769Z,10.79
2022-11-26T18:07:47.248Z,10.86
2022-11-26T18:10:18.381Z,10.91
2022-11-26T18:12:48.843Z,11.01
2022-11-26T18:15:19.293Z,11.09
2022-11-26T18:17:50.778Z,11.16
2022-11-26T18:20:21.535Z,11.21
2022-11-26T18:22:52.253Z,11.26
2022-11-26T18:25:21.618Z,11.26
2022-11-26T18:27:51.402Z,10.98
2022-11-26T18:30:20.856Z,11.11
2022-11-26T18:32:49.418Z,11.11
2022-11-26T18:35:18.949Z,10.89
2022-11-26T18:37:47.756Z,11.01
2022-11-26T18:40:18.064Z,10.77
2022-11-26T18:42:46.852Z,10.99
2022-11-26T18:45:17.039Z,11.02
2022-11-26T18:47:45.622Z,11.06
2022-11-26T18:50:14.802Z,11.17
2022-11-26T18:52:43.197Z,11.27
2022-11-26T18:55:14.683Z,11.44
2022-11-26T18:57:43.193Z,11.44
2022-11-26T19:00:12.980Z,11.51
2022-11-26T19:02:42.859Z,11.53
2022-11-26T19:05:12.158Z,11.56
2022-11-26T19:07:40.603Z,11.57
2022-11-26T19:10:10.528Z,11.58
2022-11-26T19:12:38.999Z,11.60
2022-11-26T19:15:08.419Z,11.62
2022-11-26T19:17:36.834Z,11.65
2022-11-26T19:20:08.589Z,11.60
2022-11-26T19:22:37.953Z,11.54
2022-11-26T19:25:07.388Z,11.51
2022-11-26T19:27:36.172Z,11.59
2022-11-26T19:30:05.758Z,11.58
2022-11-26T19:32:34.115Z,11.49
2022-11-26T19:35:06.084Z,11.48
2022-11-26T19:37:36.464Z,11.52
2022-11-26T19:40:06.099Z,11.55
2022-11-26T19:42:34.457Z,11.60
2022-11-26T19:45:03.197Z,11.32
2022-11-26T19:47:31.536Z,11.43
2022-11-26T19:50:00.312Z,11.26
2022-11-26T19:52:28.737Z,11.44
2022-11-26T19:54:58.839Z,11.52
2022-11-26T19:57:27.287Z,11.57
2022-11-26T19:59:55.977Z,11.63
2022-11-26T20:02:24.401Z,11.69
2022-11-26T20:04:53.232Z,11.75
2022-11-26T20:07:21.817Z,11.78
2022-11-26T20:09:52.335Z,11.84
2022-11-26T20:12:22.343Z,11.89
2022-11-26T20:14:52.236Z,11.89
2022-11-26T20:17:20.788Z,11.96
2022-11-26T20:19:49.566Z,11.96
2022-11-26T20:22:18.306Z,11.96
2022-11-26T20:24:47.089Z,12.02
2022-11-26T20:27:15.590Z,12.00
2022-11-26T20:29:45.664Z,11.98
2022-11-26T20:32:14.410Z,11.69
2022-11-26T20:34:44.730Z,11.77
2022-11-26T20:37:13.198Z,11.48
2022-11-26T20:39:42.314Z,11.57
2022-11-26T20:42:11.855Z,11.63
2022-11-26T20:44:40.541Z,11.70
2022-11-26T20:47:10.289Z,11.78
2022-11-26T20:49:42.874Z,11.47
2022-11-26T20:52:11.607Z,11.62
2022-11-26T20:54:41.174Z,11.69
2022-11-26T20:57:09.571Z,11.78
2022-11-26T20:59:38.541Z,11.84
2022-11-26T21:02:07.133Z,11.86
2022-11-26T21:04:37.380Z,11.77
2022-11-26T21:07:05.963Z,11.80
2022-11-26T21:09:34.761Z,11.86
2022-11-26T21:12:03.230Z,11.91
2022-11-26T21:14:32.009Z,11.92
2022-11-26T21:17:00.397Z,11.92
2022-11-26T21:19:29.303Z,11.88
2022-11-26T21:21:59.054Z,11.90
2022-11-26T21:24:27.872Z,11.82
2022-11-26T21:26:56.351Z,11.21
2022-11-26T21:29:25.075Z,11.35
2022-11-26T21:31:53.831Z,10.97
2022-11-26T21:34:22.730Z,11.19
2022-11-26T21:36:52.029Z,10.60
2022-11-26T21:39:22.306Z,10.81
2022-11-26T21:41:52.912Z,11.07
2022-11-26T21:44:21.654Z,10.87
2022-11-26T21:46:50.177Z,11.08
2022-11-26T21:49:18.916Z,10.84
2022-11-26T21:51:47.424Z,11.04
2022-11-26T21:54:16.460Z,11.22
2022-11-26T21:56:46.194Z,11.32
2022-11-26T21:59:14.907Z,11.26
2022-11-26T22:01:44.212Z,11.13
2022-11-26T22:04:15.717Z,11.27
2022-11-26T22:06:44.990Z,11.35
2022-11-26T22:09:15.054Z,10.89
2022-11-26T22:11:46.530Z,10.73
2022-11-26T22:14:16.876Z,10.70
2022-11-26T22:16:47.375Z,10.87
2022-11-26T22:19:16.181Z,10.64
2022-11-26T22:21:44.812Z,10.72
2022-11-26T22:24:16.478Z,10.31
2022-11-26T22:26:47.023Z,9.56
2022-11-26T22:29:18.203Z,9.32
2022-11-26T22:31:48.352Z,9.60
2022-11-26T22:34:21.909Z,10.03
2022-11-26T22:36:50.765Z,9.50
2022-11-26T22:39:20.672Z,9.10
2022-11-26T22:41:50.567Z,9.45
2022-11-26T22:44:19.718Z,9.28
2022-11-26T22:46:48.360Z,9.08
2022-11-26T22:49:18.921Z,8.89
2022-11-26T22:51:48.097Z,8.51
2022-11-26T22:54:18.149Z,8.39
2022-11-26T22:56:46.626Z,8.24
2022-11-26T22:59:16.926Z,8.13
2022-11-26T23:01:45.308Z,7.86
2022-11-26T23:04:13.988Z,8.52
2022-11-26T23:06:42.419Z,8.14
2022-11-26T23:09:13.341Z,8.42
2022-11-26T23:11:43.774Z,8.66
2022-11-26T23:14:13.258Z,8.30
2022-11-26T23:16:44.310Z,8.42
2022-11-26T23:19:15.418Z,8.84
2022-11-26T23:21:44.873Z,9.13
2022-11-26T23:24:14.914Z,9.41
2022-11-26T23:26:44.302Z,9.40
2022-11-26T23:29:13.628Z,9.66
2022-11-26T23:31:45.601Z,9.93
2022-11-26T23:34:15.605Z,10.00
2022-11-26T23:36:43.933Z,9.31
2022-11-26T23:39:14.448Z,9.66
2022-11-26T23:41:43.765Z,9.04
2022-11-26T23:44:12.451Z,8.34
2022-11-26T23:46:40.828Z,8.42
2022-11-26T23:49:11.682Z,9.00
2022-11-26T23:51:40.178Z,9.39
2022-11-26T23:54:08.950Z,9.40
2022-11-26T23:56:37.283Z,9.51
2022-11-26T23:59:06.296Z,9.66
